sensor_id;sensor_type;location;lat;lon;timestamp;pressure;altitude;pressure_sealevel;temperature;humidity
19259;BME280;9763;48.780;9.212;2023-06-14T00:01:44;97845.03;;;22.00;nan
19259;BME280;9763;48.780;9.212;2023-06-14T00:05:10;97856.22;;;21.96;nan
19259;BME280;9763;48.780;9.212;2023-06-14T00:08:35;97847.31;;;21.88;nan
19259;BME280;9763;48.780;9.212;2023-06-14T00:12:00;97856.47;;;21.86;nan
19259;BME280;9763;48.780;9.212;2023-06-14T00:15:25;97861.19;;;21.84;nan
19259;BME280;9763;48.780;9.212;2023-06-14T00:18:49;97865.03;;;21.81;nan
19259;BME280;9763;48.780;9.212;2023-06-14T00:22:15;97868.03;;;21.78;nan
19259;BME280;9763;48.780;9.212;2023-06-14T00:25:39;97865.13;;;21.73;nan
19259;BME280;9763;48.780;9.212;2023-06-14T00:29:04;97867.03;;;21.65;nan
19259;BME280;9763;48.780;9.212;2023-06-14T00:32:27;97866.31;;;21.56;nan
19259;BME280;9763;48.780;9.212;2023-06-14T00:35:51;97865.56;;;21.47;nan
19259;BME280;9763;48.780;9.212;2023-06-14T00:39:16;97859.50;;;21.39;nan
19259;BME280;9763;48.780;9.212;2023-06-14T00:42:39;97859.22;;;21.34;nan
19259;BME280;9763;48.780;9.212;2023-06-14T00:46:06;97858.50;;;21.25;nan
19259;BME280;9763;48.780;9.212;2023-06-14T00:49:31;97855.72;;;21.18;nan
19259;BME280;9763;48.780;9.212;2023-06-14T00:52:55;97860.69;;;21.13;nan
19259;BME280;9763;48.780;9.212;2023-06-14T00:56:20;97861.72;;;21.12;nan
19259;BME280;9763;48.780;9.212;2023-06-14T00:59:48;97859.44;;;21.09;nan
19259;BME280;9763;48.780;9.212;2023-06-14T01:03:13;97854.66;;;21.05;nan
19259;BME280;9763;48.780;9.212;2023-06-14T01:06:58;97861.50;;;20.99;nan
19259;BME280;9763;48.780;9.212;2023-06-14T01:10:36;97866.16;;;20.97;nan
19259;BME280;9763;48.780;9.212;2023-06-14T01:14:07;97864.88;;;20.93;nan
19259;BME280;9763;48.780;9.212;2023-06-14T01:17:34;97871.34;;;20.91;nan
19259;BME280;9763;48.780;9.212;2023-06-14T01:20:59;97877.19;;;20.86;nan
19259;BME280;9763;48.780;9.212;2023-06-14T01:24:29;97869.28;;;20.78;nan
19259;BME280;9763;48.780;9.212;2023-06-14T01:27:58;97873.84;;;20.69;nan
19259;BME280;9763;48.780;9.212;2023-06-14T01:31:24;97881.50;;;20.64;nan
19259;BME280;9763;48.780;9.212;2023-06-14T01:34:48;97877.56;;;20.60;nan
19259;BME280;9763;48.780;9.212;2023-06-14T01:38:13;97870.09;;;20.56;nan
19259;BME280;9763;48.780;9.212;2023-06-14T01:41:40;97868.63;;;20.53;nan
19259;BME280;9763;48.780;9.212;2023-06-14T01:45:07;97870.81;;;20.49;nan
19259;BME280;9763;48.780;9.212;2023-06-14T01:48:31;97866.22;;;20.43;nan
19259;BME280;9763;48.780;9.212;2023-06-14T01:51:55;97876.16;;;20.41;nan
19259;BME280;9763;48.780;9.212;2023-06-14T01:55:19;97879.34;;;20.37;nan
19259;BME280;9763;48.780;9.212;2023-06-14T01:58:45;97874.34;;;20.34;nan
19259;BME280;9763;48.780;9.212;2023-06-14T02:02:10;97865.47;;;20.27;nan
19259;BME280;9763;48.780;9.212;2023-06-14T02:05:34;97874.91;;;20.21;nan
19259;BME280;9763;48.780;9.212;2023-06-14T02:09:01;97868.03;;;20.12;nan
19259;BME280;9763;48.780;9.212;2023-06-14T02:12:25;97878.78;;;20.10;nan
19259;BME280;9763;48.780;9.212;2023-06-14T02:15:53;97875.66;;;20.07;nan
19259;BME280;9763;48.780;9.212;2023-06-14T02:19:18;97878.00;;;20.02;nan
19259;BME280;9763;48.780;9.212;2023-06-14T02:22:42;97875.03;;;19.97;nan
19259;BME280;9763;48.780;9.212;2023-06-14T02:26:05;97876.19;;;19.94;nan
19259;BME280;9763;48.780;9.212;2023-06-14T02:29:29;97877.91;;;19.87;nan
19259;BME280;9763;48.780;9.212;2023-06-14T02:32:54;97868.63;;;19.83;nan
19259;BME280;9763;48.780;9.212;2023-06-14T02:36:19;97872.44;;;19.81;nan
19259;BME280;9763;48.780;9.212;2023-06-14T02:39:43;97875.28;;;19.79;nan
19259;BME280;9763;48.780;9.212;2023-06-14T02:43:06;97873.97;;;19.75;nan
19259;BME280;9763;48.780;9.212;2023-06-14T02:46:30;97874.47;;;19.70;nan
19259;BME280;9763;48.780;9.212;2023-06-14T02:49:55;97875.97;;;19.65;nan
19259;BME280;9763;48.780;9.212;2023-06-14T02:53:19;97872.50;;;19.56;nan
19259;BME280;9763;48.780;9.212;2023-06-14T02:56:43;97878.50;;;19.50;nan
19259;BME280;9763;48.780;9.212;2023-06-14T03:00:08;97883.47;;;19.53;nan
19259;BME280;9763;48.780;9.212;2023-06-14T03:03:37;97884.78;;;19.49;nan
19259;BME280;9763;48.780;9.212;2023-06-14T03:07:03;97885.59;;;19.41;nan
19259;BME280;9763;48.780;9.212;2023-06-14T03:10:33;97886.75;;;19.39;nan
19259;BME280;9763;48.780;9.212;2023-06-14T03:13:58;97888.06;;;19.35;nan
19259;BME280;9763;48.780;9.212;2023-06-14T03:17:22;97895.53;;;19.31;nan
19259;BME280;9763;48.780;9.212;2023-06-14T03:20:47;97894.38;;;19.26;nan
19259;BME280;9763;48.780;9.212;2023-06-14T03:24:12;97891.06;;;19.24;nan
19259;BME280;9763;48.780;9.212;2023-06-14T03:27:38;97893.56;;;19.25;nan
19259;BME280;9763;48.780;9.212;2023-06-14T03:31:02;97904.47;;;19.22;nan
19259;BME280;9763;48.780;9.212;2023-06-14T03:34:28;97908.94;;;19.22;nan
19259;BME280;9763;48.780;9.212;2023-06-14T03:37:52;97909.09;;;19.20;nan
19259;BME280;9763;48.780;9.212;2023-06-14T03:41:18;97912.25;;;19.24;nan
19259;BME280;9763;48.780;9.212;2023-06-14T03:44:44;97917.22;;;19.27;nan
19259;BME280;9763;48.780;9.212;2023-06-14T03:48:10;97918.69;;;19.29;nan
19259;BME280;9763;48.780;9.212;2023-06-14T03:51:34;97919.16;;;19.33;nan
19259;BME280;9763;48.780;9.212;2023-06-14T03:54:58;97928.13;;;19.40;nan
19259;BME280;9763;48.780;9.212;2023-06-14T03:58:28;97931.94;;;19.54;nan
19259;BME280;9763;48.780;9.212;2023-06-14T04:01:53;97932.56;;;19.72;nan
19259;BME280;9763;48.780;9.212;2023-06-14T04:05:18;97924.53;;;19.96;nan
19259;BME280;9763;48.780;9.212;2023-06-14T04:08:44;97925.78;;;20.25;nan
19259;BME280;9763;48.780;9.212;2023-06-14T04:12:09;97929.00;;;20.51;nan
19259;BME280;9763;48.780;9.212;2023-06-14T04:15:35;97926.47;;;20.80;nan
19259;BME280;9763;48.780;9.212;2023-06-14T04:19:01;97936.88;;;21.13;nan
19259;BME280;9763;48.780;9.212;2023-06-14T04:22:25;97943.75;;;21.45;nan
19259;BME280;9763;48.780;9.212;2023-06-14T04:25:52;97951.88;;;21.81;nan
19259;BME280;9763;48.780;9.212;2023-06-14T04:29:17;97949.19;;;22.18;nan
19259;BME280;9763;48.780;9.212;2023-06-14T04:32:50;97940.28;;;22.62;nan
19259;BME280;9763;48.780;9.212;2023-06-14T04:36:16;97944.25;;;23.02;nan
19259;BME280;9763;48.780;9.212;2023-06-14T04:39:43;97948.34;;;23.47;nan
19259;BME280;9763;48.780;9.212;2023-06-14T04:43:07;97941.94;;;23.91;nan
19259;BME280;9763;48.780;9.212;2023-06-14T04:46:31;97946.53;;;24.38;nan
19259;BME280;9763;48.780;9.212;2023-06-14T04:49:58;97943.38;;;24.89;nan
19259;BME280;9763;48.780;9.212;2023-06-14T04:53:25;97953.59;;;25.46;nan
19259;BME280;9763;48.780;9.212;2023-06-14T04:56:53;97961.41;;;25.94;nan
19259;BME280;9763;48.780;9.212;2023-06-14T05:00:20;97947.75;;;26.28;nan
19259;BME280;9763;48.780;9.212;2023-06-14T05:03:46;97969.72;;;26.95;nan
19259;BME280;9763;48.780;9.212;2023-06-14T05:07:12;97973.53;;;27.43;nan
19259;BME280;9763;48.780;9.212;2023-06-14T05:10:37;97969.63;;;27.95;nan
19259;BME280;9763;48.780;9.212;2023-06-14T05:14:01;97977.81;;;28.44;nan
19259;BME280;9763;48.780;9.212;2023-06-14T05:17:24;97965.56;;;28.84;nan
19259;BME280;9763;48.780;9.212;2023-06-14T05:20:50;97969.28;;;29.13;nan
19259;BME280;9763;48.780;9.212;2023-06-14T05:24:15;97967.38;;;29.32;nan
19259;BME280;9763;48.780;9.212;2023-06-14T05:27:40;97974.56;;;29.61;nan
19259;BME280;9763;48.780;9.212;2023-06-14T05:31:04;97966.53;;;29.96;nan
19259;BME280;9763;48.780;9.212;2023-06-14T05:34:28;97958.56;;;30.36;nan
19259;BME280;9763;48.780;9.212;2023-06-14T05:37:51;97970.22;;;30.94;nan
19259;BME280;9763;48.780;9.212;2023-06-14T05:41:17;97968.47;;;31.44;nan
19259;BME280;9763;48.780;9.212;2023-06-14T05:44:43;97977.47;;;32.00;nan
19259;BME280;9763;48.780;9.212;2023-06-14T05:48:06;97971.44;;;32.48;nan
19259;BME280;9763;48.780;9.212;2023-06-14T05:51:30;97965.81;;;32.99;nan
19259;BME280;9763;48.780;9.212;2023-06-14T05:54:53;97959.78;;;33.40;nan
19259;BME280;9763;48.780;9.212;2023-06-14T05:58:18;97966.00;;;33.73;nan
19259;BME280;9763;48.780;9.212;2023-06-14T06:01:42;97964.56;;;33.97;nan
19259;BME280;9763;48.780;9.212;2023-06-14T06:05:06;97972.97;;;34.38;nan
19259;BME280;9763;48.780;9.212;2023-06-14T06:08:31;97973.22;;;34.88;nan
19259;BME280;9763;48.780;9.212;2023-06-14T06:11:55;97970.34;;;35.41;nan
19259;BME280;9763;48.780;9.212;2023-06-14T06:15:20;97967.66;;;35.86;nan
19259;BME280;9763;48.780;9.212;2023-06-14T06:18:44;97966.22;;;36.24;nan
19259;BME280;9763;48.780;9.212;2023-06-14T06:22:07;97981.59;;;36.74;nan
19259;BME280;9763;48.780;9.212;2023-06-14T06:25:31;97967.00;;;37.04;nan
19259;BME280;9763;48.780;9.212;2023-06-14T06:28:55;97974.63;;;37.46;nan
19259;BME280;9763;48.780;9.212;2023-06-14T06:32:21;97971.06;;;37.85;nan
19259;BME280;9763;48.780;9.212;2023-06-14T06:35:45;97978.75;;;38.12;nan
19259;BME280;9763;48.780;9.212;2023-06-14T06:39:08;97970.69;;;38.26;nan
19259;BME280;9763;48.780;9.212;2023-06-14T06:42:32;97978.28;;;38.52;nan
19259;BME280;9763;48.780;9.212;2023-06-14T06:45:59;97984.00;;;38.56;nan
19259;BME280;9763;48.780;9.212;2023-06-14T06:49:24;97980.22;;;38.76;nan
19259;BME280;9763;48.780;9.212;2023-06-14T06:52:47;97986.50;;;38.95;nan
19259;BME280;9763;48.780;9.212;2023-06-14T06:56:11;97999.31;;;39.18;nan
19259;BME280;9763;48.780;9.212;2023-06-14T06:59:35;98001.47;;;39.59;nan
19259;BME280;9763;48.780;9.212;2023-06-14T07:02:59;98003.78;;;39.84;nan
19259;BME280;9763;48.780;9.212;2023-06-14T07:06:25;98009.53;;;40.02;nan
19259;BME280;9763;48.780;9.212;2023-06-14T07:09:49;98007.13;;;40.27;nan
19259;BME280;9763;48.780;9.212;2023-06-14T07:13:13;98006.69;;;40.53;nan
19259;BME280;9763;48.780;9.212;2023-06-14T07:16:37;98007.09;;;40.74;nan
19259;BME280;9763;48.780;9.212;2023-06-14T07:20:02;98004.25;;;40.92;nan
19259;BME280;9763;48.780;9.212;2023-06-14T07:23:32;98016.88;;;41.29;nan
19259;BME280;9763;48.780;9.212;2023-06-14T07:26:55;98022.78;;;41.45;nan
19259;BME280;9763;48.780;9.212;2023-06-14T07:30:19;98028.72;;;41.75;nan
19259;BME280;9763;48.780;9.212;2023-06-14T07:33:43;98026.03;;;42.05;nan
19259;BME280;9763;48.780;9.212;2023-06-14T07:37:07;98021.53;;;42.40;nan
19259;BME280;9763;48.780;9.212;2023-06-14T07:40:32;98033.03;;;42.82;nan
19259;BME280;9763;48.780;9.212;2023-06-14T07:43:56;98029.03;;;43.05;nan
19259;BME280;9763;48.780;9.212;2023-06-14T07:47:20;98031.31;;;43.12;nan
19259;BME280;9763;48.780;9.212;2023-06-14T07:50:44;98033.47;;;43.32;nan
19259;BME280;9763;48.780;9.212;2023-06-14T07:54:08;98035.44;;;43.66;nan
19259;BME280;9763;48.780;9.212;2023-06-14T07:57:33;98034.13;;;43.90;nan
19259;BME280;9763;48.780;9.212;2023-06-14T08:00:57;98031.50;;;44.19;nan
19259;BME280;9763;48.780;9.212;2023-06-14T08:04:22;98029.31;;;44.33;nan
19259;BME280;9763;48.780;9.212;2023-06-14T08:07:46;98029.56;;;44.66;nan
19259;BME280;9763;48.780;9.212;2023-06-14T08:11:09;98025.56;;;44.46;nan
19259;BME280;9763;48.780;9.212;2023-06-14T08:14:34;98025.06;;;43.89;nan
19259;BME280;9763;48.780;9.212;2023-06-14T08:17:58;98032.50;;;44.06;nan
19259;BME280;9763;48.780;9.212;2023-06-14T08:21:23;98028.06;;;44.31;nan
19259;BME280;9763;48.780;9.212;2023-06-14T08:24:51;98027.28;;;44.68;nan
19259;BME280;9763;48.780;9.212;2023-06-14T08:28:16;98033.28;;;45.00;nan
19259;BME280;9763;48.780;9.212;2023-06-14T08:31:41;98037.00;;;45.04;nan
19259;BME280;9763;48.780;9.212;2023-06-14T08:35:06;98027.63;;;44.96;nan
19259;BME280;9763;48.780;9.212;2023-06-14T08:38:30;98032.97;;;44.93;nan
19259;BME280;9763;48.780;9.212;2023-06-14T08:41:56;98031.09;;;45.35;nan
19259;BME280;9763;48.780;9.212;2023-06-14T08:45:22;98041.41;;;45.67;nan
19259;BME280;9763;48.780;9.212;2023-06-14T08:48:51;98023.84;;;45.72;nan
19259;BME280;9763;48.780;9.212;2023-06-14T08:52:20;98035.88;;;45.88;nan
19259;BME280;9763;48.780;9.212;2023-06-14T08:55:45;98029.13;;;45.98;nan
19259;BME280;9763;48.780;9.212;2023-06-14T08:59:11;98039.06;;;46.11;nan
19259;BME280;9763;48.780;9.212;2023-06-14T09:02:34;98035.97;;;46.12;nan
19259;BME280;9763;48.780;9.212;2023-06-14T09:06:00;98037.81;;;46.20;nan
19259;BME280;9763;48.780;9.212;2023-06-14T09:09:25;98030.84;;;46.02;nan
19259;BME280;9763;48.780;9.212;2023-06-14T09:12:49;98035.03;;;46.08;nan
19259;BME280;9763;48.780;9.212;2023-06-14T09:16:13;98033.63;;;46.35;nan
19259;BME280;9763;48.780;9.212;2023-06-14T09:19:36;98028.56;;;46.61;nan
19259;BME280;9763;48.780;9.212;2023-06-14T09:23:03;98027.31;;;46.83;nan
19259;BME280;9763;48.780;9.212;2023-06-14T09:26:30;98034.91;;;47.11;nan
19259;BME280;9763;48.780;9.212;2023-06-14T09:29:53;98027.88;;;47.13;nan
19259;BME280;9763;48.780;9.212;2023-06-14T09:33:17;98023.16;;;47.14;nan
19259;BME280;9763;48.780;9.212;2023-06-14T09:36:41;98032.03;;;47.07;nan
19259;BME280;9763;48.780;9.212;2023-06-14T09:40:08;98026.22;;;47.24;nan
19259;BME280;9763;48.780;9.212;2023-06-14T09:43:33;98038.97;;;47.53;nan
19259;BME280;9763;48.780;9.212;2023-06-14T09:46:57;98031.94;;;47.56;nan
19259;BME280;9763;48.780;9.212;2023-06-14T09:50:21;98030.50;;;47.34;nan
19259;BME280;9763;48.780;9.212;2023-06-14T09:53:46;98033.63;;;47.20;nan
19259;BME280;9763;48.780;9.212;2023-06-14T09:57:14;98030.16;;;47.63;nan
19259;BME280;9763;48.780;9.212;2023-06-14T10:00:40;98021.34;;;48.01;nan
19259;BME280;9763;48.780;9.212;2023-06-14T10:04:07;98027.31;;;48.16;nan
19259;BME280;9763;48.780;9.212;2023-06-14T10:07:40;98030.00;;;48.28;nan
19259;BME280;9763;48.780;9.212;2023-06-14T10:11:06;98018.03;;;48.55;nan
19259;BME280;9763;48.780;9.212;2023-06-14T10:14:31;98024.13;;;48.61;nan
19259;BME280;9763;48.780;9.212;2023-06-14T10:18:02;98022.03;;;48.26;nan
19259;BME280;9763;48.780;9.212;2023-06-14T10:21:40;98024.34;;;48.24;nan
19259;BME280;9763;48.780;9.212;2023-06-14T10:25:12;98012.56;;;47.84;nan
19259;BME280;9763;48.780;9.212;2023-06-14T10:28:37;98020.16;;;47.59;nan
19259;BME280;9763;48.780;9.212;2023-06-14T10:32:04;98020.66;;;47.49;nan
19259;BME280;9763;48.780;9.212;2023-06-14T10:35:28;98012.50;;;47.68;nan
19259;BME280;9763;48.780;9.212;2023-06-14T10:39:05;98007.72;;;47.53;nan
19259;BME280;9763;48.780;9.212;2023-06-14T10:42:32;98020.53;;;46.11;nan
19259;BME280;9763;48.780;9.212;2023-06-14T10:46:17;98021.47;;;45.20;nan
19259;BME280;9763;48.780;9.212;2023-06-14T10:49:54;98018.25;;;43.26;nan
19259;BME280;9763;48.780;9.212;2023-06-14T10:53:22;98027.06;;;41.51;nan
19259;BME280;9763;48.780;9.212;2023-06-14T10:56:47;98018.44;;;40.40;nan
19259;BME280;9763;48.780;9.212;2023-06-14T11:00:14;98030.63;;;40.15;nan
19259;BME280;9763;48.780;9.212;2023-06-14T11:03:51;98023.69;;;38.91;nan
19259;BME280;9763;48.780;9.212;2023-06-14T11:07:41;98026.00;;;37.68;nan
19259;BME280;9763;48.780;9.212;2023-06-14T11:11:09;98031.50;;;37.09;nan
19259;BME280;9763;48.780;9.212;2023-06-14T11:14:33;98024.41;;;37.08;nan
19259;BME280;9763;48.780;9.212;2023-06-14T11:18:00;98015.03;;;37.78;nan
19259;BME280;9763;48.780;9.212;2023-06-14T11:21:24;98001.53;;;39.54;nan
19259;BME280;9763;48.780;9.212;2023-06-14T11:24:57;98008.63;;;40.93;nan
19259;BME280;9763;48.780;9.212;2023-06-14T11:28:35;98011.38;;;41.88;nan
19259;BME280;9763;48.780;9.212;2023-06-14T11:31:59;98005.22;;;42.75;nan
19259;BME280;9763;48.780;9.212;2023-06-14T11:35:24;98004.81;;;43.07;nan
19259;BME280;9763;48.780;9.212;2023-06-14T11:38:48;98002.56;;;43.53;nan
19259;BME280;9763;48.780;9.212;2023-06-14T11:42:15;98011.75;;;44.17;nan
19259;BME280;9763;48.780;9.212;2023-06-14T11:45:39;98013.63;;;44.72;nan
19259;BME280;9763;48.780;9.212;2023-06-14T11:49:03;98015.84;;;45.37;nan
19259;BME280;9763;48.780;9.212;2023-06-14T11:52:30;98013.25;;;45.95;nan
19259;BME280;9763;48.780;9.212;2023-06-14T11:55:54;98008.66;;;45.99;nan
19259;BME280;9763;48.780;9.212;2023-06-14T11:59:20;97998.50;;;45.58;nan
19259;BME280;9763;48.780;9.212;2023-06-14T12:02:52;98001.03;;;45.42;nan
19259;BME280;9763;48.780;9.212;2023-06-14T12:06:27;97993.44;;;45.60;nan
19259;BME280;9763;48.780;9.212;2023-06-14T12:10:07;97992.44;;;45.64;nan
19259;BME280;9763;48.780;9.212;2023-06-14T12:13:32;97995.06;;;45.61;nan
19259;BME280;9763;48.780;9.212;2023-06-14T12:17:05;98003.81;;;45.63;nan
19259;BME280;9763;48.780;9.212;2023-06-14T12:20:30;98000.00;;;45.67;nan
19259;BME280;9763;48.780;9.212;2023-06-14T12:23:54;98004.38;;;45.89;nan
19259;BME280;9763;48.780;9.212;2023-06-14T12:27:22;98002.59;;;45.84;nan
19259;BME280;9763;48.780;9.212;2023-06-14T12:30:46;97998.38;;;45.87;nan
19259;BME280;9763;48.780;9.212;2023-06-14T12:34:12;97995.59;;;45.87;nan
19259;BME280;9763;48.780;9.212;2023-06-14T12:37:35;97993.25;;;45.65;nan
19259;BME280;9763;48.780;9.212;2023-06-14T12:41:00;97978.63;;;45.43;nan
19259;BME280;9763;48.780;9.212;2023-06-14T12:44:24;97986.66;;;45.36;nan
19259;BME280;9763;48.780;9.212;2023-06-14T12:47:48;97996.06;;;45.14;nan
19259;BME280;9763;48.780;9.212;2023-06-14T12:51:13;97991.03;;;44.87;nan
19259;BME280;9763;48.780;9.212;2023-06-14T12:54:37;97984.19;;;44.64;nan
19259;BME280;9763;48.780;9.212;2023-06-14T12:58:03;97988.50;;;44.44;nan
19259;BME280;9763;48.780;9.212;2023-06-14T13:01:27;97990.59;;;44.47;nan
19259;BME280;9763;48.780;9.212;2023-06-14T13:04:51;97990.25;;;44.48;nan
19259;BME280;9763;48.780;9.212;2023-06-14T13:08:19;97988.94;;;44.55;nan
19259;BME280;9763;48.780;9.212;2023-06-14T13:11:46;97984.59;;;44.45;nan
19259;BME280;9763;48.780;9.212;2023-06-14T13:15:10;97989.34;;;44.36;nan
19259;BME280;9763;48.780;9.212;2023-06-14T13:18:34;97989.03;;;44.29;nan
19259;BME280;9763;48.780;9.212;2023-06-14T13:21:58;97987.59;;;44.23;nan
19259;BME280;9763;48.780;9.212;2023-06-14T13:25:23;97989.94;;;44.03;nan
19259;BME280;9763;48.780;9.212;2023-06-14T13:28:47;98004.69;;;43.56;nan
19259;BME280;9763;48.780;9.212;2023-06-14T13:32:11;98004.13;;;42.85;nan
19259;BME280;9763;48.780;9.212;2023-06-14T13:35:35;97991.69;;;42.17;nan
19259;BME280;9763;48.780;9.212;2023-06-14T13:38:58;97996.63;;;41.03;nan
19259;BME280;9763;48.780;9.212;2023-06-14T13:42:24;98004.97;;;40.11;nan
19259;BME280;9763;48.780;9.212;2023-06-14T13:45:48;97998.66;;;39.26;nan
19259;BME280;9763;48.780;9.212;2023-06-14T13:49:29;97992.28;;;38.22;nan
19259;BME280;9763;48.780;9.212;2023-06-14T13:52:56;97998.16;;;37.32;nan
19259;BME280;9763;48.780;9.212;2023-06-14T13:56:37;97998.53;;;36.51;nan
19259;BME280;9763;48.780;9.212;2023-06-14T14:00:03;97986.69;;;35.86;nan
19259;BME280;9763;48.780;9.212;2023-06-14T14:03:45;97985.47;;;35.16;nan
19259;BME280;9763;48.780;9.212;2023-06-14T14:07:09;98005.19;;;34.76;nan
19259;BME280;9763;48.780;9.212;2023-06-14T14:10:51;97988.78;;;34.56;nan
19259;BME280;9763;48.780;9.212;2023-06-14T14:14:15;97990.41;;;34.52;nan
19259;BME280;9763;48.780;9.212;2023-06-14T14:17:57;97978.13;;;34.39;nan
19259;BME280;9763;48.780;9.212;2023-06-14T14:21:21;97985.06;;;34.25;nan
19259;BME280;9763;48.780;9.212;2023-06-14T14:24:45;97960.47;;;33.94;nan
19259;BME280;9763;48.780;9.212;2023-06-14T14:28:09;97989.19;;;33.90;nan
19259;BME280;9763;48.780;9.212;2023-06-14T14:31:48;97982.22;;;33.68;nan
19259;BME280;9763;48.780;9.212;2023-06-14T14:35:14;97996.19;;;33.54;nan
19259;BME280;9763;48.780;9.212;2023-06-14T14:38:37;98005.44;;;33.32;nan
19259;BME280;9763;48.780;9.212;2023-06-14T14:42:01;98000.81;;;33.05;nan
19259;BME280;9763;48.780;9.212;2023-06-14T14:45:25;98005.22;;;32.89;nan
19259;BME280;9763;48.780;9.212;2023-06-14T14:48:49;98004.50;;;32.72;nan
19259;BME280;9763;48.780;9.212;2023-06-14T14:52:14;98008.34;;;32.60;nan
19259;BME280;9763;48.780;9.212;2023-06-14T14:55:45;98007.13;;;32.50;nan
19259;BME280;9763;48.780;9.212;2023-06-14T14:59:09;98008.63;;;32.41;nan
19259;BME280;9763;48.780;9.212;2023-06-14T15:02:33;98010.72;;;32.34;nan
19259;BME280;9763;48.780;9.212;2023-06-14T15:05:57;97997.38;;;32.28;nan
19259;BME280;9763;48.780;9.212;2023-06-14T15:09:22;97997.38;;;32.28;nan
19259;BME280;9763;48.780;9.212;2023-06-14T15:12:46;97986.75;;;32.21;nan
19259;BME280;9763;48.780;9.212;2023-06-14T15:16:10;97999.81;;;32.29;nan
19259;BME280;9763;48.780;9.212;2023-06-14T15:19:34;98003.72;;;32.38;nan
19259;BME280;9763;48.780;9.212;2023-06-14T15:22:58;98008.63;;;32.41;nan
19259;BME280;9763;48.780;9.212;2023-06-14T15:26:23;98008.63;;;32.41;nan
19259;BME280;9763;48.780;9.212;2023-06-14T15:29:47;98001.28;;;32.37;nan
19259;BME280;9763;48.780;9.212;2023-06-14T15:33:13;97995.09;;;32.19;nan
19259;BME280;9763;48.780;9.212;2023-06-14T15:36:36;97994.44;;;31.96;nan
19259;BME280;9763;48.780;9.212;2023-06-14T15:40:00;97985.22;;;31.75;nan
19259;BME280;9763;48.780;9.212;2023-06-14T15:43:26;97998.06;;;31.68;nan
19259;BME280;9763;48.780;9.212;2023-06-14T15:46:50;97999.97;;;31.56;nan
19259;BME280;9763;48.780;9.212;2023-06-14T15:50:13;97995.94;;;31.41;nan
19259;BME280;9763;48.780;9.212;2023-06-14T15:53:37;97996.59;;;31.32;nan
19259;BME280;9763;48.780;9.212;2023-06-14T15:57:01;97997.00;;;31.24;nan
19259;BME280;9763;48.780;9.212;2023-06-14T16:00:27;97994.69;;;31.16;nan
19259;BME280;9763;48.780;9.212;2023-06-14T16:03:51;97986.06;;;31.02;nan
19259;BME280;9763;48.780;9.212;2023-06-14T16:07:14;98001.66;;;31.00;nan
19259;BME280;9763;48.780;9.212;2023-06-14T16:10:38;97990.66;;;30.90;nan
19259;BME280;9763;48.780;9.212;2023-06-14T16:14:02;97997.69;;;30.91;nan
19259;BME280;9763;48.780;9.212;2023-06-14T16:17:27;97998.53;;;30.91;nan
19259;BME280;9763;48.780;9.212;2023-06-14T16:20:51;98006.25;;;30.88;nan
19259;BME280;9763;48.780;9.212;2023-06-14T16:24:17;97998.28;;;30.81;nan
19259;BME280;9763;48.780;9.212;2023-06-14T16:27:41;98009.31;;;30.79;nan
19259;BME280;9763;48.780;9.212;2023-06-14T16:31:05;98002.44;;;30.72;nan
19259;BME280;9763;48.780;9.212;2023-06-14T16:34:30;98007.34;;;30.75;nan
19259;BME280;9763;48.780;9.212;2023-06-14T16:37:55;98007.59;;;30.73;nan
19259;BME280;9763;48.780;9.212;2023-06-14T16:41:19;98014.50;;;30.69;nan
19259;BME280;9763;48.780;9.212;2023-06-14T16:44:42;98009.34;;;30.68;nan
19259;BME280;9763;48.780;9.212;2023-06-14T16:48:06;98003.63;;;30.64;nan
19259;BME280;9763;48.780;9.212;2023-06-14T16:51:31;98011.72;;;30.64;nan
19259;BME280;9763;48.780;9.212;2023-06-14T16:54:55;98018.16;;;30.63;nan
19259;BME280;9763;48.780;9.212;2023-06-14T16:58:18;98015.13;;;30.60;nan
19259;BME280;9763;48.780;9.212;2023-06-14T17:01:42;98018.16;;;30.52;nan
19259;BME280;9763;48.780;9.212;2023-06-14T17:05:07;98031.41;;;30.41;nan
19259;BME280;9763;48.780;9.212;2023-06-14T17:08:32;98031.28;;;30.25;nan
19259;BME280;9763;48.780;9.212;2023-06-14T17:11:56;98031.97;;;30.08;nan
19259;BME280;9763;48.780;9.212;2023-06-14T17:15:20;98030.09;;;29.97;nan
19259;BME280;9763;48.780;9.212;2023-06-14T17:18:44;98037.22;;;29.92;nan
19259;BME280;9763;48.780;9.212;2023-06-14T17:22:07;98035.69;;;29.84;nan
19259;BME280;9763;48.780;9.212;2023-06-14T17:25:32;98040.94;;;29.79;nan
19259;BME280;9763;48.780;9.212;2023-06-14T17:28:56;98049.69;;;29.74;nan
19259;BME280;9763;48.780;9.212;2023-06-14T17:32:19;98048.53;;;29.70;nan
19259;BME280;9763;48.780;9.212;2023-06-14T17:35:44;98053.78;;;29.65;nan
19259;BME280;9763;48.780;9.212;2023-06-14T17:39:07;98040.53;;;29.52;nan
19259;BME280;9763;48.780;9.212;2023-06-14T17:42:33;98057.16;;;29.61;nan
19259;BME280;9763;48.780;9.212;2023-06-14T17:45:56;98067.09;;;29.60;nan
19259;BME280;9763;48.780;9.212;2023-06-14T17:49:21;98074.34;;;29.60;nan
19259;BME280;9763;48.780;9.212;2023-06-14T17:52:48;98063.31;;;29.50;nan
19259;BME280;9763;48.780;9.212;2023-06-14T17:56:12;98069.91;;;29.54;nan
19259;BME280;9763;48.780;9.212;2023-06-14T17:59:37;98074.19;;;29.43;nan
19259;BME280;9763;48.780;9.212;2023-06-14T18:03:00;98074.47;;;29.35;nan
19259;BME280;9763;48.780;9.212;2023-06-14T18:06:25;98086.81;;;29.24;nan
19259;BME280;9763;48.780;9.212;2023-06-14T18:09:48;98091.31;;;29.12;nan
19259;BME280;9763;48.780;9.212;2023-06-14T18:13:12;98090.38;;;29.07;nan
19259;BME280;9763;48.780;9.212;2023-06-14T18:16:37;98096.03;;;28.98;nan
19259;BME280;9763;48.780;9.212;2023-06-14T18:20:04;98092.81;;;28.90;nan
19259;BME280;9763;48.780;9.212;2023-06-14T18:23:28;98104.09;;;28.80;nan
19259;BME280;9763;48.780;9.212;2023-06-14T18:26:52;98101.09;;;28.70;nan
19259;BME280;9763;48.780;9.212;2023-06-14T18:30:17;98100.78;;;28.60;nan
19259;BME280;9763;48.780;9.212;2023-06-14T18:33:43;98101.94;;;28.46;nan
19259;BME280;9763;48.780;9.212;2023-06-14T18:37:07;98097.75;;;28.31;nan
19259;BME280;9763;48.780;9.212;2023-06-14T18:40:31;98100.31;;;28.20;nan
19259;BME280;9763;48.780;9.212;2023-06-14T18:43:54;98101.81;;;28.09;nan
19259;BME280;9763;48.780;9.212;2023-06-14T18:47:18;98103.16;;;28.00;nan
19259;BME280;9763;48.780;9.212;2023-06-14T18:50:43;98110.63;;;27.91;nan
19259;BME280;9763;48.780;9.212;2023-06-14T18:54:07;98105.75;;;27.82;nan